sensor_id;sensor_type;location;lat;lon;timestamp;P1;durP1;ratioP1;P2;durP2;ratioP2
70733;SDS011;58320;48.804;9.252;2023-03-01T00:02:20;18.80;;;10.63;;
70733;SDS011;58320;48.804;9.252;2023-03-01T00:04:46;22.00;;;11.40;;
70733;SDS011;58320;48.804;9.252;2023-03-01T00:07:12;19.65;;;10.93;;
70733;SDS011;58320;48.804;9.252;2023-03-01T00:09:38;20.67;;;10.60;;
70733;SDS011;58320;48.804;9.252;2023-03-01T00:12:05;22.30;;;11.13;;
70733;SDS011;58320;48.804;9.252;2023-03-01T00:14:31;24.67;;;11.27;;
70733;SDS011;58320;48.804;9.252;2023-03-01T00:16:57;25.10;;;11.43;;
70733;SDS011;58320;48.804;9.252;2023-03-01T00:19:23;21.30;;;10.37;;
70733;SDS011;58320;48.804;9.252;2023-03-01T00:21:49;20.67;;;10.52;;
70733;SDS011;58320;48.804;9.252;2023-03-01T00:24:14;18.53;;;10.30;;
70733;SDS011;58320;48.804;9.252;2023-03-01T00:26:40;20.45;;;11.05;;
70733;SDS011;58320;48.804;9.252;2023-03-01T00:29:06;20.67;;;11.95;;
70733;SDS011;58320;48.804;9.252;2023-03-01T00:31:33;19.80;;;11.35;;
70733;SDS011;58320;48.804;9.252;2023-03-01T00:34:00;19.88;;;10.88;;
70733;SDS011;58320;48.804;9.252;2023-03-01T00:36:30;20.30;;;11.03;;
70733;SDS011;58320;48.804;9.252;2023-03-01T00:39:02;24.17;;;11.50;;
70733;SDS011;58320;48.804;9.252;2023-03-01T00:41:29;22.70;;;11.18;;
70733;SDS011;58320;48.804;9.252;2023-03-01T00:43:55;22.10;;;11.70;;
70733;SDS011;58320;48.804;9.252;2023-03-01T00:46:22;22.80;;;11.93;;
70733;SDS011;58320;48.804;9.252;2023-03-01T00:48:50;21.63;;;11.68;;
70733;SDS011;58320;48.804;9.252;2023-03-01T00:51:17;21.25;;;11.65;;
70733;SDS011;58320;48.804;9.252;2023-03-01T00:53:56;21.63;;;10.98;;
70733;SDS011;58320;48.804;9.252;2023-03-01T00:56:24;22.17;;;11.55;;
70733;SDS011;58320;48.804;9.252;2023-03-01T00:58:50;24.53;;;11.50;;
70733;SDS011;58320;48.804;9.252;2023-03-01T01:01:17;21.25;;;11.73;;
70733;SDS011;58320;48.804;9.252;2023-03-01T01:06:28;19.93;;;10.83;;
70733;SDS011;58320;48.804;9.252;2023-03-01T01:09:05;26.48;;;11.50;;
70733;SDS011;58320;48.804;9.252;2023-03-01T01:11:32;22.88;;;12.43;;
70733;SDS011;58320;48.804;9.252;2023-03-01T01:14:00;21.83;;;12.18;;
70733;SDS011;58320;48.804;9.252;2023-03-01T01:16:27;22.33;;;11.93;;
70733;SDS011;58320;48.804;9.252;2023-03-01T01:18:53;23.70;;;12.13;;
70733;SDS011;58320;48.804;9.252;2023-03-01T01:21:21;24.48;;;12.93;;
70733;SDS011;58320;48.804;9.252;2023-03-01T01:23:48;19.83;;;10.82;;
70733;SDS011;58320;48.804;9.252;2023-03-01T01:26:19;21.65;;;11.55;;
70733;SDS011;58320;48.804;9.252;2023-03-01T01:28:48;23.58;;;11.20;;
70733;SDS011;58320;48.804;9.252;2023-03-01T01:31:15;22.50;;;11.27;;
70733;SDS011;58320;48.804;9.252;2023-03-01T01:33:41;22.77;;;11.40;;
70733;SDS011;58320;48.804;9.252;2023-03-01T01:36:08;21.35;;;12.02;;
70733;SDS011;58320;48.804;9.252;2023-03-01T01:38:34;21.42;;;11.07;;
70733;SDS011;58320;48.804;9.252;2023-03-01T01:41:01;22.70;;;11.50;;
70733;SDS011;58320;48.804;9.252;2023-03-01T01:43:30;19.13;;;10.15;;
70733;SDS011;58320;48.804;9.252;2023-03-01T01:46:06;22.75;;;10.98;;
70733;SDS011;58320;48.804;9.252;2023-03-01T01:49:04;22.67;;;11.20;;
70733;SDS011;58320;48.804;9.252;2023-03-01T01:51:36;22.17;;;11.82;;
70733;SDS011;58320;48.804;9.252;2023-03-01T01:54:07;21.03;;;10.93;;
70733;SDS011;58320;48.804;9.252;2023-03-01T01:56:37;22.52;;;10.90;;
70733;SDS011;58320;48.804;9.252;2023-03-01T01:59:09;22.40;;;11.82;;
70733;SDS011;58320;48.804;9.252;2023-03-01T02:01:36;23.45;;;11.20;;
70733;SDS011;58320;48.804;9.252;2023-03-01T02:04:02;23.43;;;11.43;;
70733;SDS011;58320;48.804;9.252;2023-03-01T02:06:39;22.70;;;11.57;;
70733;SDS011;58320;48.804;9.252;2023-03-01T02:09:13;24.83;;;11.90;;
70733;SDS011;58320;48.804;9.252;2023-03-01T02:11:40;23.52;;;11.57;;
70733;SDS011;58320;48.804;9.252;2023-03-01T02:14:08;23.95;;;12.55;;
70733;SDS011;58320;48.804;9.252;2023-03-01T02:16:33;25.90;;;11.50;;
70733;SDS011;58320;48.804;9.252;2023-03-01T02:19:00;21.23;;;11.48;;
70733;SDS011;58320;48.804;9.252;2023-03-01T02:27:22;22.03;;;11.13;;
70733;SDS011;58320;48.804;9.252;2023-03-01T02:29:57;22.48;;;11.35;;
70733;SDS011;58320;48.804;9.252;2023-03-01T02:32:22;20.90;;;11.20;;
70733;SDS011;58320;48.804;9.252;2023-03-01T02:34:52;21.63;;;11.05;;
70733;SDS011;58320;48.804;9.252;2023-03-01T02:37:20;18.90;;;10.90;;
70733;SDS011;58320;48.804;9.252;2023-03-01T02:39:50;21.25;;;11.25;;
70733;SDS011;58320;48.804;9.252;2023-03-01T02:42:26;21.02;;;11.45;;
70733;SDS011;58320;48.804;9.252;2023-03-01T02:44:57;24.52;;;11.32;;
70733;SDS011;58320;48.804;9.252;2023-03-01T02:47:23;23.33;;;11.85;;
70733;SDS011;58320;48.804;9.252;2023-03-01T02:49:48;22.93;;;11.97;;
70733;SDS011;58320;48.804;9.252;2023-03-01T02:52:26;22.88;;;12.25;;
70733;SDS011;58320;48.804;9.252;2023-03-01T02:55:17;22.27;;;11.60;;
70733;SDS011;58320;48.804;9.252;2023-03-01T02:57:45;24.63;;;11.25;;
70733;SDS011;58320;48.804;9.252;2023-03-01T03:00:20;20.27;;;11.13;;
70733;SDS011;58320;48.804;9.252;2023-03-01T03:02:51;24.00;;;12.00;;
70733;SDS011;58320;48.804;9.252;2023-03-01T03:05:18;23.23;;;11.93;;
70733;SDS011;58320;48.804;9.252;2023-03-01T03:07:48;22.97;;;12.10;;
70733;SDS011;58320;48.804;9.252;2023-03-01T03:10:22;24.83;;;12.40;;
70733;SDS011;58320;48.804;9.252;2023-03-01T03:12:53;23.30;;;11.75;;
70733;SDS011;58320;48.804;9.252;2023-03-01T03:15:25;24.10;;;12.48;;
70733;SDS011;58320;48.804;9.252;2023-03-01T03:17:52;21.38;;;11.38;;
70733;SDS011;58320;48.804;9.252;2023-03-01T03:20:20;22.77;;;11.30;;
70733;SDS011;58320;48.804;9.252;2023-03-01T03:22:52;23.58;;;11.35;;
70733;SDS011;58320;48.804;9.252;2023-03-01T03:25:19;26.42;;;13.10;;
70733;SDS011;58320;48.804;9.252;2023-03-01T03:27:47;26.25;;;12.00;;
70733;SDS011;58320;48.804;9.252;2023-03-01T03:30:15;27.25;;;12.82;;
70733;SDS011;58320;48.804;9.252;2023-03-01T03:32:44;23.53;;;11.63;;
70733;SDS011;58320;48.804;9.252;2023-03-01T03:35:17;24.35;;;11.35;;
70733;SDS011;58320;48.804;9.252;2023-03-01T03:37:59;23.80;;;12.13;;
70733;SDS011;58320;48.804;9.252;2023-03-01T03:40:35;24.58;;;11.50;;
70733;SDS011;58320;48.804;9.252;2023-03-01T03:43:10;23.20;;;11.98;;
70733;SDS011;58320;48.804;9.252;2023-03-01T03:45:47;23.07;;;11.80;;
70733;SDS011;58320;48.804;9.252;2023-03-01T03:48:15;23.27;;;11.90;;
70733;SDS011;58320;48.804;9.252;2023-03-01T03:50:46;22.98;;;12.05;;
70733;SDS011;58320;48.804;9.252;2023-03-01T03:53:15;24.02;;;12.20;;
70733;SDS011;58320;48.804;9.252;2023-03-01T03:55:41;22.25;;;12.07;;
70733;SDS011;58320;48.804;9.252;2023-03-01T03:58:09;22.50;;;11.80;;
70733;SDS011;58320;48.804;9.252;2023-03-01T04:00:37;26.15;;;12.30;;
70733;SDS011;58320;48.804;9.252;2023-03-01T04:03:06;25.38;;;12.98;;
70733;SDS011;58320;48.804;9.252;2023-03-01T04:05:32;26.58;;;12.55;;
70733;SDS011;58320;48.804;9.252;2023-03-01T04:07:59;27.65;;;11.98;;
70733;SDS011;58320;48.804;9.252;2023-03-01T04:10:28;25.83;;;12.27;;
70733;SDS011;58320;48.804;9.252;2023-03-01T04:12:58;26.80;;;12.73;;
70733;SDS011;58320;48.804;9.252;2023-03-01T04:15:24;23.63;;;12.73;;
70733;SDS011;58320;48.804;9.252;2023-03-01T04:17:52;24.42;;;12.80;;
70733;SDS011;58320;48.804;9.252;2023-03-01T04:20:20;24.87;;;12.47;;
70733;SDS011;58320;48.804;9.252;2023-03-01T04:22:51;23.52;;;11.95;;
70733;SDS011;58320;48.804;9.252;2023-03-01T04:28:38;22.48;;;11.93;;
70733;SDS011;58320;48.804;9.252;2023-03-01T04:31:11;21.33;;;12.38;;
70733;SDS011;58320;48.804;9.252;2023-03-01T04:33:41;22.37;;;11.57;;
70733;SDS011;58320;48.804;9.252;2023-03-01T04:36:22;24.45;;;13.18;;
70733;SDS011;58320;48.804;9.252;2023-03-01T04:38:53;23.85;;;12.20;;
70733;SDS011;58320;48.804;9.252;2023-03-01T04:41:20;24.67;;;13.02;;
70733;SDS011;58320;48.804;9.252;2023-03-01T04:43:48;26.50;;;13.38;;
70733;SDS011;58320;48.804;9.252;2023-03-01T04:46:15;26.30;;;14.13;;
70733;SDS011;58320;48.804;9.252;2023-03-01T04:48:44;30.33;;;14.52;;
70733;SDS011;58320;48.804;9.252;2023-03-01T04:51:12;23.73;;;13.45;;
70733;SDS011;58320;48.804;9.252;2023-03-01T04:53:38;26.00;;;12.77;;
70733;SDS011;58320;48.804;9.252;2023-03-01T04:56:06;25.13;;;12.60;;
70733;SDS011;58320;48.804;9.252;2023-03-01T04:58:31;23.10;;;12.77;;
70733;SDS011;58320;48.804;9.252;2023-03-01T05:00:57;21.85;;;11.73;;
70733;SDS011;58320;48.804;9.252;2023-03-01T05:03:23;23.63;;;12.35;;
70733;SDS011;58320;48.804;9.252;2023-03-01T05:05:50;24.33;;;12.80;;
70733;SDS011;58320;48.804;9.252;2023-03-01T05:08:17;24.43;;;12.20;;
70733;SDS011;58320;48.804;9.252;2023-03-01T05:10:47;24.95;;;12.32;;
70733;SDS011;58320;48.804;9.252;2023-03-01T05:13:17;25.83;;;13.02;;
70733;SDS011;58320;48.804;9.252;2023-03-01T05:15:48;22.58;;;11.73;;
70733;SDS011;58320;48.804;9.252;2023-03-01T05:18:23;23.33;;;12.63;;
70733;SDS011;58320;48.804;9.252;2023-03-01T05:20:51;22.60;;;11.93;;
70733;SDS011;58320;48.804;9.252;2023-03-01T05:23:23;25.58;;;13.27;;
70733;SDS011;58320;48.804;9.252;2023-03-01T05:25:49;26.08;;;13.18;;
70733;SDS011;58320;48.804;9.252;2023-03-01T05:28:17;23.60;;;12.27;;
70733;SDS011;58320;48.804;9.252;2023-03-01T05:30:44;25.65;;;12.90;;
70733;SDS011;58320;48.804;9.252;2023-03-01T05:33:11;23.57;;;12.40;;
70733;SDS011;58320;48.804;9.252;2023-03-01T05:35:40;26.02;;;14.00;;
70733;SDS011;58320;48.804;9.252;2023-03-01T05:38:08;26.13;;;13.73;;
70733;SDS011;58320;48.804;9.252;2023-03-01T05:40:38;25.63;;;13.80;;
70733;SDS011;58320;48.804;9.252;2023-03-01T05:43:05;25.33;;;12.55;;
70733;SDS011;58320;48.804;9.252;2023-03-01T05:45:32;23.10;;;12.30;;
70733;SDS011;58320;48.804;9.252;2023-03-01T05:47:58;26.13;;;13.40;;
70733;SDS011;58320;48.804;9.252;2023-03-01T05:50:25;26.92;;;13.52;;
70733;SDS011;58320;48.804;9.252;2023-03-01T05:53:00;23.63;;;12.63;;
70733;SDS011;58320;48.804;9.252;2023-03-01T05:55:33;24.33;;;13.07;;
70733;SDS011;58320;48.804;9.252;2023-03-01T05:58:04;24.05;;;13.55;;
70733;SDS011;58320;48.804;9.252;2023-03-01T06:00:33;24.77;;;13.43;;
70733;SDS011;58320;48.804;9.252;2023-03-01T06:02:59;26.25;;;13.48;;
70733;SDS011;58320;48.804;9.252;2023-03-01T06:05:26;25.38;;;13.55;;
70733;SDS011;58320;48.804;9.252;2023-03-01T06:07:52;26.83;;;14.17;;
70733;SDS011;58320;48.804;9.252;2023-03-01T06:10:19;25.88;;;13.15;;
70733;SDS011;58320;48.804;9.252;2023-03-01T06:12:47;25.10;;;12.75;;
70733;SDS011;58320;48.804;9.252;2023-03-01T06:15:14;27.95;;;13.70;;
70733;SDS011;58320;48.804;9.252;2023-03-01T06:17:42;25.92;;;13.30;;
70733;SDS011;58320;48.804;9.252;2023-03-01T06:22:43;26.10;;;14.05;;
70733;SDS011;58320;48.804;9.252;2023-03-01T06:25:11;27.20;;;14.20;;
70733;SDS011;58320;48.804;9.252;2023-03-01T06:27:40;26.73;;;13.10;;
70733;SDS011;58320;48.804;9.252;2023-03-01T06:30:07;28.77;;;13.65;;
70733;SDS011;58320;48.804;9.252;2023-03-01T06:32:36;24.40;;;13.40;;
70733;SDS011;58320;48.804;9.252;2023-03-01T06:35:03;24.08;;;13.43;;
70733;SDS011;58320;48.804;9.252;2023-03-01T06:37:30;25.08;;;13.40;;
70733;SDS011;58320;48.804;9.252;2023-03-01T06:39:55;27.67;;;13.70;;
70733;SDS011;58320;48.804;9.252;2023-03-01T06:42:22;28.00;;;13.47;;
70733;SDS011;58320;48.804;9.252;2023-03-01T06:44:47;24.77;;;13.25;;
70733;SDS011;58320;48.804;9.252;2023-03-01T06:47:13;26.97;;;13.17;;
70733;SDS011;58320;48.804;9.252;2023-03-01T06:49:39;22.33;;;12.13;;
70733;SDS011;58320;48.804;9.252;2023-03-01T06:52:06;27.60;;;13.60;;
70733;SDS011;58320;48.804;9.252;2023-03-01T06:54:31;27.93;;;14.07;;
70733;SDS011;58320;48.804;9.252;2023-03-01T06:56:57;25.95;;;14.07;;
70733;SDS011;58320;48.804;9.252;2023-03-01T06:59:23;27.30;;;13.57;;
70733;SDS011;58320;48.804;9.252;2023-03-01T07:01:48;27.30;;;14.00;;
70733;SDS011;58320;48.804;9.252;2023-03-01T07:04:14;27.88;;;14.27;;
70733;SDS011;58320;48.804;9.252;2023-03-01T07:06:40;24.23;;;13.77;;
70733;SDS011;58320;48.804;9.252;2023-03-01T07:09:06;25.20;;;13.77;;
70733;SDS011;58320;48.804;9.252;2023-03-01T07:11:31;26.27;;;12.67;;
70733;SDS011;58320;48.804;9.252;2023-03-01T07:13:58;30.98;;;14.60;;
70733;SDS011;58320;48.804;9.252;2023-03-01T07:16:25;28.85;;;13.50;;
70733;SDS011;58320;48.804;9.252;2023-03-01T07:18:50;27.90;;;14.60;;
70733;SDS011;58320;48.804;9.252;2023-03-01T07:21:16;27.33;;;13.35;;
70733;SDS011;58320;48.804;9.252;2023-03-01T07:23:42;28.20;;;13.93;;
70733;SDS011;58320;48.804;9.252;2023-03-01T07:26:08;29.47;;;14.33;;
70733;SDS011;58320;48.804;9.252;2023-03-01T07:28:34;24.45;;;13.20;;
70733;SDS011;58320;48.804;9.252;2023-03-01T07:31:07;29.77;;;14.15;;
70733;SDS011;58320;48.804;9.252;2023-03-01T07:33:33;25.88;;;13.90;;
70733;SDS011;58320;48.804;9.252;2023-03-01T07:35:59;29.67;;;14.93;;
70733;SDS011;58320;48.804;9.252;2023-03-01T07:38:28;30.58;;;14.35;;
70733;SDS011;58320;48.804;9.252;2023-03-01T07:40:57;28.38;;;13.77;;
70733;SDS011;58320;48.804;9.252;2023-03-01T07:43:28;28.80;;;14.30;;
70733;SDS011;58320;48.804;9.252;2023-03-01T07:45:57;28.77;;;14.50;;
70733;SDS011;58320;48.804;9.252;2023-03-01T07:48:25;30.55;;;14.10;;
70733;SDS011;58320;48.804;9.252;2023-03-01T07:50:51;26.92;;;13.95;;
70733;SDS011;58320;48.804;9.252;2023-03-01T07:53:17;28.33;;;13.80;;
70733;SDS011;58320;48.804;9.252;2023-03-01T07:55:42;26.42;;;13.65;;
70733;SDS011;58320;48.804;9.252;2023-03-01T07:58:08;24.50;;;12.77;;
70733;SDS011;58320;48.804;9.252;2023-03-01T08:00:34;27.20;;;14.50;;
70733;SDS011;58320;48.804;9.252;2023-03-01T08:03:00;26.83;;;13.70;;
70733;SDS011;58320;48.804;9.252;2023-03-01T08:05:26;28.60;;;14.47;;
70733;SDS011;58320;48.804;9.252;2023-03-01T08:07:52;29.25;;;14.20;;
70733;SDS011;58320;48.804;9.252;2023-03-01T08:10:19;29.23;;;14.98;;
70733;SDS011;58320;48.804;9.252;2023-03-01T08:12:45;26.75;;;14.80;;
70733;SDS011;58320;48.804;9.252;2023-03-01T08:15:10;26.47;;;13.70;;
70733;SDS011;58320;48.804;9.252;2023-03-01T08:17:36;27.45;;;13.77;;
70733;SDS011;58320;48.804;9.252;2023-03-01T08:20:02;27.38;;;13.13;;
70733;SDS011;58320;48.804;9.252;2023-03-01T08:22:31;26.80;;;14.23;;
70733;SDS011;58320;48.804;9.252;2023-03-01T08:24:57;26.83;;;14.30;;
70733;SDS011;58320;48.804;9.252;2023-03-01T08:27:23;26.63;;;13.90;;
70733;SDS011;58320;48.804;9.252;2023-03-01T08:29:48;26.20;;;14.43;;
70733;SDS011;58320;48.804;9.252;2023-03-01T08:32:14;24.65;;;13.95;;
70733;SDS011;58320;48.804;9.252;2023-03-01T08:34:40;27.10;;;14.70;;
70733;SDS011;58320;48.804;9.252;2023-03-01T08:37:06;31.98;;;14.85;;
70733;SDS011;58320;48.804;9.252;2023-03-01T08:39:32;24.33;;;13.83;;
70733;SDS011;58320;48.804;9.252;2023-03-01T08:41:57;29.07;;;14.37;;
70733;SDS011;58320;48.804;9.252;2023-03-01T08:44:23;25.50;;;14.15;;
70733;SDS011;58320;48.804;9.252;2023-03-01T08:46:50;31.27;;;15.82;;
70733;SDS011;58320;48.804;9.252;2023-03-01T08:49:18;28.27;;;14.48;;
70733;SDS011;58320;48.804;9.252;2023-03-01T08:51:45;26.60;;;14.03;;
70733;SDS011;58320;48.804;9.252;2023-03-01T08:54:13;31.40;;;15.30;;
70733;SDS011;58320;48.804;9.252;2023-03-01T08:56:46;27.63;;;13.77;;
70733;SDS011;58320;48.804;9.252;2023-03-01T08:59:14;28.30;;;14.40;;
70733;SDS011;58320;48.804;9.252;2023-03-01T09:01:41;27.02;;;14.23;;
70733;SDS011;58320;48.804;9.252;2023-03-01T09:04:10;26.90;;;14.60;;
70733;SDS011;58320;48.804;9.252;2023-03-01T09:06:37;27.50;;;15.07;;
70733;SDS011;58320;48.804;9.252;2023-03-01T09:09:04;26.38;;;14.15;;
70733;SDS011;58320;48.804;9.252;2023-03-01T09:11:30;28.02;;;14.57;;
70733;SDS011;58320;48.804;9.252;2023-03-01T09:13:56;27.00;;;14.40;;
70733;SDS011;58320;48.804;9.252;2023-03-01T09:16:22;26.95;;;13.65;;
70733;SDS011;58320;48.804;9.252;2023-03-01T09:18:49;28.58;;;15.23;;
70733;SDS011;58320;48.804;9.252;2023-03-01T09:21:17;27.00;;;14.63;;
70733;SDS011;58320;48.804;9.252;2023-03-01T09:23:46;27.33;;;14.70;;
70733;SDS011;58320;48.804;9.252;2023-03-01T09:26:16;25.48;;;13.82;;
70733;SDS011;58320;48.804;9.252;2023-03-01T09:28:47;26.70;;;14.40;;
70733;SDS011;58320;48.804;9.252;2023-03-01T09:31:15;29.35;;;14.25;;
70733;SDS011;58320;48.804;9.252;2023-03-01T09:33:45;27.75;;;14.85;;
70733;SDS011;58320;48.804;9.252;2023-03-01T09:36:17;24.77;;;13.53;;
70733;SDS011;58320;48.804;9.252;2023-03-01T09:38:46;26.80;;;14.68;;
70733;SDS011;58320;48.804;9.252;2023-03-01T09:47:23;26.50;;;14.70;;
70733;SDS011;58320;48.804;9.252;2023-03-01T09:55:08;24.70;;;13.25;;
70733;SDS011;58320;48.804;9.252;2023-03-01T09:57:49;25.17;;;14.05;;
70733;SDS011;58320;48.804;9.252;2023-03-01T10:11:32;22.60;;;13.35;;
70733;SDS011;58320;48.804;9.252;2023-03-01T10:14:22;24.08;;;13.38;;
70733;SDS011;58320;48.804;9.252;2023-03-01T10:17:03;25.13;;;14.73;;
70733;SDS011;58320;48.804;9.252;2023-03-01T10:19:49;23.30;;;11.88;;
70733;SDS011;58320;48.804;9.252;2023-03-01T10:24:46;23.50;;;13.82;;
70733;SDS011;58320;48.804;9.252;2023-03-01T10:35:46;25.52;;;13.60;;
70733;SDS011;58320;48.804;9.252;2023-03-01T10:38:13;21.55;;;12.77;;
70733;SDS011;58320;48.804;9.252;2023-03-01T10:41:26;23.90;;;13.90;;
70733;SDS011;58320;48.804;9.252;2023-03-01T10:43:45;21.83;;;12.82;;
70733;SDS011;58320;48.804;9.252;2023-03-01T10:46:22;24.25;;;13.30;;
70733;SDS011;58320;48.804;9.252;2023-03-01T10:51:51;21.00;;;12.95;;
70733;SDS011;58320;48.804;9.252;2023-03-01T10:54:20;24.17;;;13.13;;
70733;SDS011;58320;48.804;9.252;2023-03-01T10:56:54;21.83;;;13.45;;
70733;SDS011;58320;48.804;9.252;2023-03-01T10:59:34;23.77;;;14.20;;
70733;SDS011;58320;48.804;9.252;2023-03-01T11:04:34;23.80;;;13.32;;
70733;SDS011;58320;48.804;9.252;2023-03-01T11:07:01;22.27;;;13.47;;
70733;SDS011;58320;48.804;9.252;2023-03-01T11:09:31;23.95;;;14.40;;
70733;SDS011;58320;48.804;9.252;2023-03-01T11:12:02;25.25;;;14.43;;
70733;SDS011;58320;48.804;9.252;2023-03-01T11:14:33;22.83;;;13.20;;
70733;SDS011;58320;48.804;9.252;2023-03-01T11:17:12;22.48;;;13.98;;
70733;SDS011;58320;48.804;9.252;2023-03-01T11:22:46;20.65;;;12.82;;
70733;SDS011;58320;48.804;9.252;2023-03-01T11:25:16;20.33;;;13.27;;
70733;SDS011;58320;48.804;9.252;2023-03-01T11:27:48;24.88;;;13.80;;
70733;SDS011;58320;48.804;9.252;2023-03-01T11:30:26;21.00;;;13.60;;
70733;SDS011;58320;48.804;9.252;2023-03-01T11:35:45;21.50;;;13.40;;
70733;SDS011;58320;48.804;9.252;2023-03-01T11:38:21;23.98;;;13.38;;
70733;SDS011;58320;48.804;9.252;2023-03-01T11:40:57;19.85;;;13.32;;
70733;SDS011;58320;48.804;9.252;2023-03-01T11:57:20;18.40;;;12.65;;
70733;SDS011;58320;48.804;9.252;2023-03-01T12:00:07;17.37;;;12.23;;
70733;SDS011;58320;48.804;9.252;2023-03-01T12:03:17;18.35;;;13.32;;
70733;SDS011;58320;48.804;9.252;2023-03-01T12:33:22;17.52;;;12.23;;
70733;SDS011;58320;48.804;9.252;2023-03-01T12:47:57;18.35;;;12.73;;
70733;SDS011;58320;48.804;9.252;2023-03-01T12:50:53;17.38;;;12.20;;
70733;SDS011;58320;48.804;9.252;2023-03-01T12:56:00;19.15;;;12.38;;
70733;SDS011;58320;48.804;9.252;2023-03-01T13:04:29;15.90;;;10.43;;
70733;SDS011;58320;48.804;9.252;2023-03-01T13:13:23;19.60;;;11.23;;
70733;SDS011;58320;48.804;9.252;2023-03-01T13:15:51;15.57;;;9.85;;
70733;SDS011;58320;48.804;9.252;2023-03-01T13:26:00;19.47;;;13.33;;
70733;SDS011;58320;48.804;9.252;2023-03-01T13:28:41;18.08;;;11.80;;
70733;SDS011;58320;48.804;9.252;2023-03-01T13:31:10;18.35;;;12.93;;
70733;SDS011;58320;48.804;9.252;2023-03-01T13:33:59;18.98;;;12.38;;
70733;SDS011;58320;48.804;9.252;2023-03-01T13:39:26;21.13;;;13.60;;
70733;SDS011;58320;48.804;9.252;2023-03-01T13:41:58;22.27;;;14.15;;
70733;SDS011;58320;48.804;9.252;2023-03-01T13:49:44;22.25;;;14.10;;
70733;SDS011;58320;48.804;9.252;2023-03-01T13:57:49;22.33;;;13.57;;
70733;SDS011;58320;48.804;9.252;2023-03-01T14:03:02;23.55;;;14.48;;
70733;SDS011;58320;48.804;9.252;2023-03-01T14:05:35;22.03;;;13.57;;
70733;SDS011;58320;48.804;9.252;2023-03-01T14:08:03;23.83;;;14.82;;
70733;SDS011;58320;48.804;9.252;2023-03-01T14:13:30;23.92;;;14.98;;
70733;SDS011;58320;48.804;9.252;2023-03-01T14:21:46;22.60;;;14.18;;
70733;SDS011;58320;48.804;9.252;2023-03-01T14:24:22;23.15;;;13.90;;
70733;SDS011;58320;48.804;9.252;2023-03-01T14:26:51;23.73;;;13.77;;
70733;SDS011;58320;48.804;9.252;2023-03-01T14:29:27;24.33;;;14.90;;
70733;SDS011;58320;48.804;9.252;2023-03-01T14:32:12;24.17;;;13.87;;
70733;SDS011;58320;48.804;9.252;2023-03-01T14:34:48;21.85;;;14.63;;
70733;SDS011;58320;48.804;9.252;2023-03-01T14:40:00;22.77;;;13.95;;
70733;SDS011;58320;48.804;9.252;2023-03-01T14:42:31;21.33;;;14.15;;
70733;SDS011;58320;48.804;9.252;2023-03-01T14:45:00;20.47;;;12.97;;
70733;SDS011;58320;48.804;9.252;2023-03-01T14:47:28;21.95;;;13.82;;
70733;SDS011;58320;48.804;9.252;2023-03-01T14:49:58;24.92;;;13.80;;
70733;SDS011;58320;48.804;9.252;2023-03-01T14:52:57;20.30;;;13.10;;
70733;SDS011;58320;48.804;9.252;2023-03-01T14:55:36;22.92;;;14.32;;
70733;SDS011;58320;48.804;9.252;2023-03-01T14:58:13;23.73;;;14.27;;
70733;SDS011;58320;48.804;9.252;2023-03-01T15:00:54;22.88;;;14.60;;
70733;SDS011;58320;48.804;9.252;2023-03-01T15:03:36;22.50;;;13.63;;
70733;SDS011;58320;48.804;9.252;2023-03-01T15:06:08;23.10;;;14.13;;
70733;SDS011;58320;48.804;9.252;2023-03-01T15:08:37;24.88;;;14.15;;
70733;SDS011;58320;48.804;9.252;2023-03-01T15:13:50;20.67;;;13.48;;
70733;SDS011;58320;48.804;9.252;2023-03-01T15:19:03;24.35;;;13.55;;
70733;SDS011;58320;48.804;9.252;2023-03-01T15:21:35;22.45;;;12.70;;
70733;SDS011;58320;48.804;9.252;2023-03-01T15:26:45;19.20;;;13.00;;
70733;SDS011;58320;48.804;9.252;2023-03-01T15:29:23;21.98;;;13.73;;
70733;SDS011;58320;48.804;9.252;2023-03-01T15:31:56;20.35;;;12.75;;
70733;SDS011;58320;48.804;9.252;2023-03-01T15:34:38;21.90;;;13.20;;
70733;SDS011;58320;48.804;9.252;2023-03-01T15:37:32;21.03;;;12.67;;
70733;SDS011;58320;48.804;9.252;2023-03-01T15:40:28;22.20;;;13.30;;
70733;SDS011;58320;48.804;9.252;2023-03-01T15:42:58;24.60;;;13.80;;
70733;SDS011;58320;48.804;9.252;2023-03-01T15:45:30;21.92;;;13.50;;
70733;SDS011;58320;48.804;9.252;2023-03-01T15:48:13;21.38;;;13.80;;
70733;SDS011;58320;48.804;9.252;2023-03-01T15:50:53;23.93;;;13.63;;
70733;SDS011;58320;48.804;9.252;2023-03-01T15:53:20;24.48;;;14.02;;
70733;SDS011;58320;48.804;9.252;2023-03-01T15:55:46;21.20;;;13.65;;
70733;SDS011;58320;48.804;9.252;2023-03-01T15:58:22;23.23;;;14.02;;
70733;SDS011;58320;48.804;9.252;2023-03-01T16:00:50;23.40;;;13.37;;
70733;SDS011;58320;48.804;9.252;2023-03-01T16:03:21;22.25;;;14.27;;
70733;SDS011;58320;48.804;9.252;2023-03-01T16:05:48;21.10;;;13.13;;
70733;SDS011;58320;48.804;9.252;2023-03-01T16:08:15;22.20;;;13.45;;
70733;SDS011;58320;48.804;9.252;2023-03-01T16:10:43;22.67;;;12.98;;
70733;SDS011;58320;48.804;9.252;2023-03-01T16:13:13;24.90;;;12.87;;
70733;SDS011;58320;48.804;9.252;2023-03-01T16:15:39;22.98;;;13.25;;
70733;SDS011;58320;48.804;9.252;2023-03-01T16:18:05;22.33;;;13.20;;
70733;SDS011;58320;48.804;9.252;2023-03-01T16:20:33;21.30;;;12.70;;
70733;SDS011;58320;48.804;9.252;2023-03-01T16:23:03;21.63;;;12.95;;
70733;SDS011;58320;48.804;9.252;2023-03-01T16:25:33;21.77;;;12.60;;
70733;SDS011;58320;48.804;9.252;2023-03-01T16:27:59;22.70;;;12.88;;
70733;SDS011;58320;48.804;9.252;2023-03-01T16:30:29;21.92;;;12.93;;
70733;SDS011;58320;48.804;9.252;2023-03-01T16:32:55;23.23;;;13.18;;
70733;SDS011;58320;48.804;9.252;2023-03-01T16:35:21;24.40;;;13.13;;
70733;SDS011;58320;48.804;9.252;2023-03-01T16:37:48;21.35;;;12.15;;
70733;SDS011;58320;48.804;9.252;2023-03-01T16:40:18;24.98;;;12.85;;
70733;SDS011;58320;48.804;9.252;2023-03-01T16:42:48;25.10;;;12.73;;
70733;SDS011;58320;48.804;9.252;2023-03-01T16:45:15;24.73;;;12.60;;
70733;SDS011;58320;48.804;9.252;2023-03-01T16:47:41;23.50;;;13.00;;
70733;SDS011;58320;48.804;9.252;2023-03-01T16:50:07;23.73;;;12.40;;
70733;SDS011;58320;48.804;9.252;2023-03-01T16:52:34;21.35;;;12.60;;
70733;SDS011;58320;48.804;9.252;2023-03-01T16:54:59;21.58;;;12.65;;
70733;SDS011;58320;48.804;9.252;2023-03-01T16:57:28;25.13;;;12.73;;
70733;SDS011;58320;48.804;9.252;2023-03-01T16:59:54;22.90;;;13.52;;
70733;SDS011;58320;48.804;9.252;2023-03-01T17:02:20;23.55;;;12.60;;
70733;SDS011;58320;48.804;9.252;2023-03-01T17:04:51;21.97;;;12.17;;
70733;SDS011;58320;48.804;9.252;2023-03-01T17:07:20;22.08;;;12.15;;
70733;SDS011;58320;48.804;9.252;2023-03-01T17:09:47;22.58;;;11.55;;
70733;SDS011;58320;48.804;9.252;2023-03-01T17:12:13;21.90;;;12.45;;
70733;SDS011;58320;48.804;9.252;2023-03-01T17:14:40;24.50;;;12.52;;
70733;SDS011;58320;48.804;9.252;2023-03-01T17:17:10;24.13;;;11.83;;
70733;SDS011;58320;48.804;9.252;2023-03-01T17:19:36;22.90;;;11.68;;
70733;SDS011;58320;48.804;9.252;2023-03-01T17:22:08;21.85;;;12.00;;
70733;SDS011;58320;48.804;9.252;2023-03-01T17:24:41;25.35;;;12.60;;
70733;SDS011;58320;48.804;9.252;2023-03-01T17:27:08;22.17;;;12.38;;
70733;SDS011;58320;48.804;9.252;2023-03-01T17:29:35;23.20;;;11.90;;